Terminal Aerodrome Forecast
Issued by NWS

Home | Current Version | Previous Version | Text Only | Print | Product List | Glossary On
Versions: 1 2 3 4 5 6 7 8 9 10 11 12 13 14 15 16 17 18 19 20
000
FTUS41 KPHI 162353 CCA
TAFPNE
TAF COR
KPNE 162353Z 1700/1724 22005KT P6SM SCT025 OVC030
     FM170300 VRB03KT P6SM OVC020
      TEMPO 1703/1707 6SM -SHRA
     FM170700 VRB02KT P6SM OVC020
      TEMPO 1707/1711 5SM -SHRA BR OVC015
     FM171100 12004KT 2SM -SHRA BR OVC009
     FM171500 12004KT 1SM -RA BR OVC004
     FM172200 14005KT 2SM -DZ BR OVC003=

USA.gov is the U.S. government's official web portal to all federal, state and local government web resources and services.